Time;durP1;ratioP1;P1;durP2;ratioP2;P2;SDS_P1;SDS_P2;PMS_P1;PMS_P2;Temp;Humidity;BMP_temperature;BMP_pressure;BME280_temperature;BME280_humidity;BME280_pressure;Samples;Min_cycle;Max_cycle;Signal;HPM_P1;HPM_P2
2022/06/22 18:57:43;;;;;;;;;48.75;41.50;;;;;24.79;52.85;100346.44;5123491;27;45556;-80
2022/06/22 19:00:43;;;;;;;;;47.00;40.00;;;;;25.03;53.07;100369.00;5100664;27;45472;-81
2022/06/22 19:03:23;;;;;;;;;41.00;35.50;;;;;25.15;52.39;100379.41;5092907;27;45203;-81
2022/06/22 19:05:50;;;;;;;;;41.50;36.50;;;;;24.80;52.57;100307.00;5115824;27;45151;-82
2022/06/22 19:08:26;;;;;;;;;40.50;35.25;;;;;25.25;52.34;100355.78;5083456;27;46849;-79
2022/06/22 19:11:00;;;;;;;;;34.75;32.50;;;;;25.42;52.13;100366.03;5099250;27;45322;-82
2022/06/22 19:13:35;;;;;;;;;34.25;32.50;;;;;25.41;51.97;100356.16;5116886;27;44999;-81
2022/06/22 19:16:18;;;;;;;;;40.00;35.50;;;;;25.56;52.37;100365.53;5120500;27;45123;-79
2022/06/22 19:18:47;;;;;;;;;39.50;35.25;;;;;25.59;51.94;100363.63;5120663;27;46107;-81
2022/06/22 19:21:33;;;;;;;;;40.00;35.50;;;;;25.64;52.17;100361.66;5104317;27;45280;-82
2022/06/22 19:24:17;;;;;;;;;43.25;37.50;;;;;25.67;52.43;100358.00;5103952;27;45457;-82
2022/06/22 19:27:00;;;;;;;;;36.50;34.00;;;;;25.65;52.39;100357.16;5086718;27;45199;-82
2022/06/22 19:29:36;;;;;;;;;39.00;35.25;;;;;25.70;52.01;100365.97;5112792;27;45137;-81
2022/06/22 19:32:13;;;;;;;;;39.25;35.00;;;;;25.70;52.10;100356.06;5098755;27;45740;-82
2022/06/22 19:34:51;;;;;;;;;36.75;33.25;;;;;25.69;52.53;100359.72;5106390;27;45106;-83
2022/06/22 19:37:26;;;;;;;;;39.00;34.50;;;;;25.48;52.07;100325.44;5086724;27;45697;-82
2022/06/22 19:40:07;;;;;;;;;39.25;35.00;;;;;25.62;52.48;100360.84;5119218;27;45688;-82
2022/06/22 19:42:50;;;;;;;;;40.00;35.50;;;;;25.56;52.08;100360.16;5115801;27;45224;-81
2022/06/22 19:45:15;;;;;;;;;42.00;37.00;;;;;25.56;52.52;100379.88;5115285;27;45166;-81
2022/06/22 19:48:00;;;;;;;;;38.00;33.67;;;;;25.58;52.44;100383.41;5069683;27;45455;-82
2022/06/22 19:51:17;;;;;;;;;41.75;36.75;;;;;25.58;52.36;100378.03;5091402;27;47799;-81
2022/06/22 19:54:11;;;;;;;;;40.50;35.75;;;;;25.58;52.97;100382.53;5030761;28;45463;-82
2022/06/22 19:56:39;;;;;;;;;42.50;36.50;;;;;25.57;52.66;100387.03;5094034;27;45694;-83
2022/06/22 19:59:06;;;;;;;;;39.00;35.00;;;;;25.56;52.62;100385.25;5086073;27;45637;-83
2022/06/22 20:01:36;;;;;;;;;38.50;34.25;;;;;25.54;52.76;100389.81;5088953;27;47108;-82
2022/06/22 20:04:17;;;;;;;;;34.75;32.50;;;;;25.40;52.58;100370.56;5067951;27;45781;-84
2022/06/22 20:06:48;;;;;;;;;41.00;36.25;;;;;25.44;52.72;100386.56;5071393;27;45841;-83
2022/06/22 20:09:27;;;;;;;;;36.50;33.75;;;;;25.43;53.20;100384.81;5069239;28;45875;-82
2022/06/22 20:11:57;;;;;;;;;42.25;36.50;;;;;25.45;53.57;100388.31;5068629;28;46500;-82
2022/06/22 20:14:50;;;;;;;;;43.25;37.50;;;;;25.41;53.17;100381.25;5063739;28;45458;-80
2022/06/22 20:17:36;;;;;;;;;39.25;35.25;;;;;25.17;53.35;100344.38;5048546;28;45705;-79
2022/06/22 20:20:03;;;;;;;;;38.50;34.25;;;;;25.30;53.17;100378.03;5062029;28;45440;-79
2022/06/22 20:23:07;;;;;;;;;41.50;36.75;;;;;25.43;53.46;100413.53;5071703;28;47058;-79
2022/06/22 20:25:53;;;;;;;;;38.75;35.25;;;;;25.19;53.85;100383.75;5067523;28;45807;-80
2022/06/22 20:28:31;;;;;;;;;38.75;34.00;;;;;25.19;53.71;100382.88;5071050;28;45581;-79
2022/06/22 20:31:27;;;;;;;;;35.25;32.75;;;;;25.27;53.58;100404.16;5071355;28;45505;-80
2022/06/22 20:33:59;;;;;;;;;36.75;33.75;;;;;25.24;53.69;100404.25;5065890;28;46548;-80
2022/06/22 20:36:42;;;;;;;;;35.50;32.75;;;;;25.34;53.65;100422.75;5063903;28;45688;-80
2022/06/22 20:39:07;;;;;;;;;39.00;34.00;;;;;25.14;54.30;100393.78;5052693;28;45541;-80
2022/06/22 20:41:54;;;;;;;;;36.50;32.75;;;;;25.01;54.08;100375.34;5070900;28;45583;-80
2022/06/22 20:44:31;;;;;;;;;43.25;37.75;;;;;25.26;54.32;100430.16;5070401;28;46686;-81
2022/06/22 20:47:41;;;;;;;;;45.00;38.50;;;;;25.17;54.94;100425.97;5068691;28;45464;-81
2022/06/22 20:50:17;;;;;;;;;41.00;36.50;;;;;25.17;54.70;100431.38;4967203;28;46169;-81
2022/06/22 20:52:51;;;;;;;;;48.00;40.50;;;;;25.09;54.58;100430.72;5059924;28;45407;-81
2022/06/22 20:55:40;;;;;;;;;52.25;44.50;;;;;25.12;54.71;100427.94;5070989;27;46274;-81
2022/06/22 20:58:13;;;;;;;;;45.00;38.75;;;;;25.08;55.24;100431.63;5062156;28;45609;-81
2022/06/22 21:00:42;;;;;;;;;44.00;38.50;;;;;24.80;54.67;100393.03;5055002;28;45512;-81
2022/06/22 21:03:11;;;;;;;;;42.25;36.00;;;;;25.05;54.88;100434.38;5065887;28;45494;-80
2022/06/22 21:05:48;;;;;;;;;45.75;39.25;;;;;24.99;55.40;100421.13;5041354;28;46531;-81
2022/06/22 21:08:19;;;;;;;;;42.50;36.50;;;;;25.02;54.99;100437.13;5082974;28;45550;-80
2022/06/22 21:10:47;;;;;;;;;46.75;40.25;;;;;24.92;55.36;100422.22;5066076;28;45547;-81
2022/06/22 21:13:35;;;;;;;;;44.00;37.25;;;;;24.85;55.67;100418.84;5067153;28;45455;-80
2022/06/22 21:16:00;;;;;;;;;39.50;35.25;;;;;24.69;56.38;100390.66;5065789;28;45442;-81
2022/06/22 21:18:30;;;;;;;;;42.33;36.33;;;;;24.86;56.71;100428.66;5064168;28;45353;-80
2022/06/22 21:21:06;;;;;;;;;44.00;37.00;;;;;24.82;56.80;100428.78;5069563;28;45536;-81
2022/06/22 21:23:51;;;;;;;;;45.25;39.25;;;;;24.64;57.22;100403.34;5065430;28;45884;-80
2022/06/22 21:26:27;;;;;;;;;40.50;36.00;;;;;24.74;57.64;100433.53;5061037;28;45665;-80
2022/06/22 21:31:57;;;;;;;;;42.50;36.25;;;;;24.68;58.01;100439.97;5075633;28;45469;-80
2022/06/22 21:34:25;;;;;;;;;47.75;40.00;;;;;24.58;57.71;100433.06;5067023;28;45516;-80
2022/06/22 21:36:59;;;;;;;;;40.00;34.50;;;;;24.58;57.79;100441.09;5051306;28;48502;-79
2022/06/22 21:39:33;;;;;;;;;40.75;35.50;;;;;24.53;58.22;100445.72;5079902;28;45497;-80
2022/06/22 21:42:07;;;;;;;;;43.00;37.50;;;;;24.34;58.07;100423.84;5065960;28;45375;-80
2022/06/22 21:44:50;;;;;;;;;42.50;37.75;;;;;24.44;58.47;100446.88;5069265;28;45643;-81
2022/06/22 21:47:58;;;;;;;;;44.75;38.25;;;;;24.38;58.47;100437.19;5067534;28;47162;-80
2022/06/22 21:50:38;;;;;;;;;43.50;37.75;;;;;24.13;58.25;100407.38;5015470;28;45504;-80
2022/06/22 21:53:16;;;;;;;;;37.50;33.75;;;;;24.34;59.06;100442.66;5065149;28;47516;-80
2022/06/22 21:55:51;;;;;;;;;44.25;38.25;;;;;24.22;58.48;100421.47;5047909;27;45463;-82
2022/06/22 21:59:01;;;;;;;;;46.00;39.25;;;;;24.18;58.90;100420.69;5086061;27;46806;-82
2022/06/22 22:01:44;;;;;;;;;43.25;37.25;;;;;24.26;58.78;100439.28;5067787;27;45501;-79
2022/06/22 22:04:30;;;;;;;;;39.75;35.50;;;;;24.12;58.71;100418.16;5084877;27;45570;-79
2022/06/22 22:06:59;;;;;;;;;46.50;39.25;;;;;24.14;58.83;100427.06;5088083;27;45564;-79
2022/06/22 22:10:04;;;;;;;;;39.75;35.50;;;;;24.23;58.93;100437.53;5086800;27;47360;-80
2022/06/22 22:12:29;;;;;;;;;42.25;36.50;;;;;24.15;58.93;100427.03;5073713;27;45881;-80
2022/06/22 22:14:59;;;;;;;;;46.25;38.75;;;;;24.08;59.17;100413.78;5095042;27;45593;-79
2022/06/22 22:17:31;;;;;;;;;43.75;37.50;;;;;24.14;59.80;100436.00;5084077;27;45699;-80
2022/06/22 22:20:00;;;;;;;;;41.00;36.00;;;;;24.11;59.57;100440.56;5085449;27;46334;-80
2022/06/22 22:22:37;;;;;;;;;55.25;46.50;;;;;24.07;59.69;100446.94;5090058;27;45409;-79
2022/06/22 22:25:24;;;;;;;;;55.00;46.25;;;;;23.99;59.61;100433.72;5076088;27;45468;-79
2022/06/22 22:28:08;;;;;;;;;52.25;43.50;;;;;24.02;60.06;100440.81;5081195;27;45865;-79
2022/06/22 22:30:36;;;;;;;;;54.25;44.75;;;;;23.97;59.57;100427.50;5076245;27;45701;-79
2022/06/22 22:33:03;;;;;;;;;55.75;46.75;;;;;23.68;59.54;100387.97;5090182;27;45589;-80
2022/06/22 22:35:38;;;;;;;;;52.00;43.75;;;;;24.08;59.78;100446.00;5099675;27;45775;-80
2022/06/22 22:38:07;;;;;;;;;54.50;45.50;;;;;24.08;60.27;100462.13;5094345;27;45703;-80
2022/06/22 22:40:42;;;;;;;;;54.00;46.00;;;;;24.00;60.51;100451.59;5090066;27;46174;-81
2022/06/22 22:43:26;;;;;;;;;58.25;48.50;;;;;24.00;61.80;100459.66;5103703;27;44965;-81
2022/06/22 22:45:51;;;;;;;;;58.25;49.00;;;;;23.66;62.51;100412.16;5107819;27;45087;-80
2022/06/22 22:48:18;;;;;;;;;60.00;50.00;;;;;23.64;63.13;100419.38;5102290;27;45094;-80
2022/06/22 22:50:47;;;;;;;;;58.25;48.75;;;;;23.73;63.02;100449.56;5096868;27;45645;-79
2022/06/22 22:53:19;;;;;;;;;60.00;49.75;;;;;23.71;63.49;100465.72;5101759;27;45140;-81
2022/06/22 22:55:45;;;;;;;;;59.25;49.75;;;;;23.53;64.20;100441.97;5086899;27;45602;-80
2022/06/22 22:58:27;;;;;;;;;62.00;51.25;;;;;23.58;64.12;100456.16;5089563;27;45514;-80
2022/06/22 23:00:54;;;;;;;;;60.25;50.00;;;;;23.49;64.94;100459.94;5087872;27;47277;-81
2022/06/22 23:03:24;;;;;;;;;58.50;49.50;;;;;23.34;65.54;100438.81;5089240;27;45359;-79
2022/06/22 23:05:53;;;;;;;;;62.50;51.00;;;;;23.33;65.89;100447.78;5089742;27;45841;-80
2022/06/22 23:08:31;;;;;;;;;65.50;53.75;;;;;23.31;66.48;100455.00;5077612;27;45825;-80
2022/06/22 23:11:04;;;;;;;;;65.25;53.50;;;;;23.14;66.26;100424.06;5088204;27;45585;-80
2022/06/22 23:13:36;;;;;;;;;65.00;52.75;;;;;23.27;66.80;100458.66;5089321;27;45513;-80
2022/06/22 23:16:36;;;;;;;;;64.00;52.50;;;;;23.24;66.77;100456.03;5089259;27;45549;-81
2022/06/22 23:19:01;;;;;;;;;62.00;51.50;;;;;23.05;67.01;100415.34;5075513;27;45599;-81
2022/06/22 23:21:39;;;;;;;;;63.75;52.75;;;;;23.10;66.32;100417.03;5088691;27;45787;-79
2022/06/22 23:24:24;;;;;;;;;64.25;52.75;;;;;23.22;66.81;100444.47;5089393;27;45458;-80
2022/06/22 23:26:57;;;;;;;;;62.00;50.75;;;;;23.11;66.38;100426.84;5088040;27;45404;-82
2022/06/22 23:29:33;;;;;;;;;61.25;50.75;;;;;23.20;66.91;100440.94;5099958;27;45468;-80
2022/06/22 23:31:59;;;;;;;;;62.25;51.50;;;;;23.22;67.75;100457.88;5106940;27;45168;-80
2022/06/22 23:34:32;;;;;;;;;55.75;46.25;;;;;23.23;67.69;100456.97;5104812;27;45440;-81
2022/06/22 23:36:58;;;;;;;;;49.75;42.75;;;;;23.17;67.67;100445.47;5107784;27;45236;-81
2022/06/22 23:39:28;;;;;;;;;49.50;41.25;;;;;23.04;67.70;100414.47;5097438;27;45612;-80
2022/06/22 23:42:01;;;;;;;;;55.25;46.00;;;;;23.14;67.69;100428.53;5089232;27;46473;-81
2022/06/22 23:44:27;;;;;;;;;56.00;47.00;;;;;23.14;67.84;100429.41;5092077;27;45437;-80
2022/06/22 23:49:43;;;;;;;;;59.50;49.50;;;;;22.88;68.40;100392.47;5093183;27;45476;-81
2022/06/22 23:52:20;;;;;;;;;58.50;47.75;;;;;23.13;68.57;100440.19;5092346;27;47038;-81
2022/06/22 23:54:48;;;;;;;;;56.50;47.50;;;;;23.04;68.96;100427.88;5093122;27;45578;-81
2022/06/22 23:57:27;;;;;;;;;55.00;45.50;;;;;23.12;68.61;100436.63;5090893;27;45523;-81
2022/06/22 23:59:55;;;;;;;;;59.00;48.75;;;;;23.07;69.35;100425.13;5092927;27;45602;-81
